Mesquite, Nevada Weather observations

Data are for observation ending at time listed.
 Day   Time    Ave.   Ave.  Ave.  Vector   Max.   Stn.    Total    Solar   Ave.  
  of    of     Air    Rel.  Wind   Wind    Wind   Baro.  Precip.   Rad.    Soil  
Year   Day     Temp.  Hum.  Speed  Dir.    Gust   Pres.                    Temp. 
2020   (PST)    F      %     mph   deg.    mph     mb.     in.     W/m2     F   
------------------------------------------------------------------------------
 194   19:50  106.5    11    3.1   236      6.3   941.6    0.00       0    107.3
 194   20:00  105.9    11    2.1   228      5.3   941.7    0.00       0    107.1
 194   20:10  105.1    11    1.8   232      4.7   941.8    0.00       0    106.9
 194   20:20  104.8    11    2.8   241      6.4   942.0    0.00       0    106.7
 194   20:30  104.6    12    3.0   246      5.4   942.1    0.00       0    106.6
 194   20:40  104.1    12    2.8   247      5.6   942.1    0.00       0    106.4
 194   20:50  104.8    11    3.7   241      8.3   942.1    0.00       0    106.3
 194   21:00  104.6    11    3.1   255      6.0   942.2    0.00       0    106.1
 194   21:10  103.8    12    3.2   260      5.3   942.2    0.00       0    105.9
 194   21:20  103.2    12    3.1   261      5.8   942.3    0.00       0    105.7
 194   21:30  99999.0   99999  99999.0   99999    99999.0  99999.0   99999.00   99999    99999.0
 194   21:40  99999.0   99999  99999.0   99999    99999.0  99999.0   99999.00   99999    99999.0
 194   21:50  99999.0   99999  99999.0   99999    99999.0  99999.0   99999.00   99999    99999.0
 194   22:00  99999.0   99999  99999.0   99999    99999.0  99999.0   99999.00   99999    99999.0
 194   22:10  99999.0   99999  99999.0   99999    99999.0  99999.0   99999.00   99999    99999.0
 194   22:20  99999.0   99999  99999.0   99999    99999.0  99999.0   99999.00   99999    99999.0
 194   22:30  99999.0   99999  99999.0   99999    99999.0  99999.0   99999.00   99999    99999.0
 194   22:40  99999.0   99999  99999.0   99999    99999.0  99999.0   99999.00   99999    99999.0
 194   22:50  99999.0   99999  99999.0   99999    99999.0  99999.0   99999.00   99999    99999.0
 194   23:00  99999.0   99999  99999.0   99999    99999.0  99999.0   99999.00   99999    99999.0
 194   23:10  99999.0   99999  99999.0   99999    99999.0  99999.0   99999.00   99999    99999.0
 194   23:20  99999.0   99999  99999.0   99999    99999.0  99999.0   99999.00   99999    99999.0
 194   23:30  99999.0   99999  99999.0   99999    99999.0  99999.0   99999.00   99999    99999.0
 194   23:40  99999.0   99999  99999.0   99999    99999.0  99999.0   99999.00   99999    99999.0
 194   23:50   95.2    13    3.5    41      4.3   942.4    0.00       0    103.5
 195    0:00   94.4    13    3.6    50      4.0   942.4    0.00       1    103.4
 195    0:10   94.4    13    3.8    60      5.5   942.4    0.00       1    103.3
 195    0:20   94.6    13    3.6    60      5.4   942.3    0.00       1    103.1
 195    0:30   94.9    13    1.9    43      4.9   942.3    0.00       0    103.0
 195    0:40   94.7    14    1.9   304      5.3   942.3    0.00       1    102.8
 195    0:50   93.8    15    2.4   311      4.2   942.3    0.00       1    102.7
 195    1:00   94.0    15    2.0   320      4.1   942.3    0.00       1    102.5
 195    1:10   92.1    16    2.1   112      3.7   942.4    0.00       1    102.4
 195    1:20   88.8    17    1.6    89      3.0   942.5    0.00       1    102.3
 195    1:30   89.8    16    1.8     8      4.5   942.5    0.00       1    102.1
 195    1:40   93.0    14    0.3   333      2.4   942.5    0.00       1    102.0
 195    1:50   91.8    15    1.4    90      2.9   942.5    0.00       1    101.9
 195    2:00   89.7    16    2.6    80      4.6   942.5    0.00       1    101.8
 195    2:10   87.8    17    2.1    55      4.0   942.5    0.00       1    101.6
 195    2:20   86.9    18    1.9    64      4.0   942.6    0.00       1    101.5
 195    2:30   85.9    18    2.3    89      5.0   942.7    0.00       1    101.4
 195    2:40   84.9    18    4.4    65      5.0   942.7    0.00       1    101.3
 195    2:50   85.8    18    5.2    50      7.0   942.7    0.00       2    101.2
 195    3:00   87.3    17    4.6    37      5.8   942.7    0.00       1    101.0
 195    3:10   88.0    17    3.3    65      5.5   942.8    0.00       1    100.9
 195    3:20   85.0    18    4.0    68      6.5   942.8    0.00       1    100.7
 195    3:30   84.5    18    2.5    59      3.7   942.9    0.00       1    100.6
 195    3:40   85.2    18    2.0   117      3.4   943.0    0.00       1    100.5
 195    3:50   84.4    18    2.8   104      3.9   943.1    0.00       1    100.4
 195    4:00   83.7    18    1.9    95      4.0   943.3    0.00       1    100.3
 195    4:10   83.9    18    1.5   145      3.4   943.4    0.00       2    100.1
 195    4:20   84.2    19    1.0    66      4.2   943.4    0.00       3    100.0
 195    4:30   83.6    20    3.1   176      6.1   943.5    0.00       3    99.9
 195    4:40   84.3    19    1.7     8      3.3   943.5    0.00       7    99.8
 195    4:50   85.0    20    2.4     9      5.0   943.6    0.00      13    99.7
 195    5:00   84.5    21    2.6   191      7.1   943.8    0.00      26    99.6
 195    5:10   85.0    20    2.8    70      5.0   943.8    0.00      45    99.4
 195    5:20   85.4    19    2.1    59      5.3   943.9    0.00      66    99.3
 195    5:30   87.0    18    2.1    22      3.7   944.0    0.00      89    99.2
 195    5:40   89.1    17    1.8   354      4.7   944.1    0.00     111    99.1
 195    5:50   89.5    17    3.2    89      5.3   944.1    0.00     135    99.0
 195    6:00   91.1    15    1.3    78      3.3   944.2    0.00     160    98.9
 195    6:10   92.4    15    2.3   114      4.7   944.2    0.00     186    98.8
 195    6:20   92.2    16    1.5   117      2.8   944.2    0.00     213    98.7
 195    6:30   93.7    16    1.6   111      3.7   944.3    0.00     242    98.6
 195    6:40   93.7    16    1.9   190      3.8   944.4    0.00     274    98.5
 195    6:50   95.8    15    1.2   115      3.1   944.4    0.00     306    98.5
 195    7:00   95.8    16    1.1   246      2.4   944.5    0.00     349    98.4
 195    7:10   97.6    15    1.3   241      4.4   944.5    0.00     383    98.3
 195    7:20   97.0    15    1.1   231      3.1   944.5    0.00     281    98.2
 195    7:30   99.2    14    0.4   220      2.0   944.5    0.00     397    98.3
 195    7:40  100.3    14    1.7   271      2.8   944.6    0.00     421    98.3
 195    7:50  100.8    14    1.4   285      3.3   944.6    0.00     446    98.2
 195    8:00  102.2    13    1.9   273      4.6   944.5    0.00     471    98.2
 195    8:10  103.4    13    1.8   280      3.4   944.5    0.00     492    98.2
 195    8:20  103.1    12    3.7   272      6.7   944.5    0.00     514    98.2
 195    8:30  103.7    12    3.4   277      5.8   944.5    0.00     536    98.1
 195    8:40  104.4    12    2.8   267      5.1   944.5    0.00     556    98.1
 195    8:50  105.1    12    3.7   306      7.2   944.4    0.00     577    98.1
 195    9:00  105.7    12    3.9   275      7.2   944.4    0.00     596    98.1
 195    9:10  106.4    11    3.5   317      6.2   944.3    0.00     614    98.2
 195    9:20  108.1    10    2.1   342      4.6   944.3    0.00     629    98.3
 195    9:30  108.1    11    3.7   253      7.7   944.3    0.00     642    98.5
 195    9:40  109.2    10    2.8   205      7.6   944.2    0.00     655    98.7
 195    9:50  110.4    10    3.8   211     12.5   944.1    0.00     669    99.0
 195   10:00  109.9    10    8.5   210     20.0   944.0    0.00     672    99.2
 195   10:10  110.4    10    7.8   208     18.9   944.1    0.00     699    99.6
 195   10:20  110.4    10    9.1   206     19.8   944.1    0.00     711    100.0
 195   10:30  110.5    10    8.4   207     20.0   944.1    0.00     714    100.5
 195   10:40  110.4    10    8.5   202     20.0   944.1    0.00     725    100.9
 195   10:50  110.2    10    8.9   208     22.3   944.1    0.00     735    101.3
 195   11:00  110.3    10    9.4   198     17.5   944.1    0.00     742    101.7
 195   11:10  110.5    10    7.9   214     21.4   944.0    0.00     746    102.1
 195   11:20  110.3    10    9.6   215     23.0   944.0    0.00     749    102.5
 195   11:30  110.9    10    8.9   206     21.9   943.9    0.00     749    103.0
 195   11:40  111.0    10   10.2   203     22.8   943.9    0.00     753    103.4
 195   11:50  111.1    10    9.3   205     22.5   943.8    0.00     753    103.8
 195   12:00  110.6    10    9.9   206     22.4   943.8    0.00     753    104.3
 195   12:10  111.5    10    8.7   188     23.0   943.6    0.00     752    104.6
 195   12:20  111.6    10   10.3   193     24.2   943.6    0.00     750    105.0
 195   12:30  111.0    10   10.8   205     26.2   943.4    0.00     750    105.4
 195   12:40  110.8    10   11.4   205     24.7   943.4    0.00     747    105.8
 195   12:50  111.0    10    8.2   209     17.3   943.2    0.00     740    106.2
 195   13:00  111.8    10    8.7   191     25.7   943.1    0.00     735    106.6
 195   13:10  111.5    10    8.9   220     22.6   943.0    0.00     724    107.0
 195   13:20  111.7    10   10.1   203     24.7   942.9    0.00     718    107.3
 195   13:30  112.0     9    8.3   208     18.4   942.8    0.00     704    107.6
 195   13:40  112.3     9    8.5   201     33.0   942.7    0.00     689    108.0
 195   13:50  113.3     9    6.1   199     20.3   942.6    0.00     675    108.2
 195   14:00  113.2     9    8.9   201     24.5   942.4    0.00     660    108.6
 195   14:10  112.8     9    7.3   188     20.8   942.1    0.00     638    108.9
 195   14:20  112.0     9    9.5   218     21.6   942.0    0.00     623    109.2
 195   14:30  112.5     9    8.3   194     21.6   941.8    0.00     603    109.5
 195   14:40  112.5     9    9.3   208     19.4   941.7    0.00     583    109.7
 195   14:50  112.5     9    9.4   191     20.8   941.7    0.00     564    110.0
 195   15:00  113.1     8    9.8   204     24.7   941.6    0.00     544    110.2
 195   15:10  112.5     8    9.4   198     22.7   941.6    0.00     521    110.4
 195   15:20  112.5     8    9.9   182     23.4   941.4    0.00     501    110.5
 195   15:30  112.8     8   10.2   209     24.5   941.4    0.00     479    110.7
 195   15:40  112.1     8    9.1   211     23.2   941.4    0.00     453    110.8
 195   15:50  111.9     8   10.9   206     26.0   941.3    0.00     431    110.9
 195   16:00  111.3     8   10.1   225     24.6   941.2    0.00     406    111.0
 195   16:10  111.9     8    9.4   208     22.1   941.1    0.00     379    111.1
 195   16:20  112.2     8    8.2   206     18.0   941.0    0.00     354    111.1
 195   16:30  111.4     8   10.3   211     23.3   940.9    0.00     328    111.2
 195   16:40  111.3     8    8.2   215     19.8   940.9    0.00     302    111.2
 195   16:50  111.0     8    9.6   214     19.6   940.7    0.00     275    111.1
 195   17:00  111.0     8    8.8   202     22.6   940.7    0.00     248    111.1
 195   17:10  111.3     8    6.2   192     19.2   940.7    0.00     222    111.0
 195   17:20  111.1     8    7.7   218     18.1   940.8    0.00     197    111.0
 195   17:30  110.4     8    8.5   215     24.1   940.8    0.00     171    110.9
 195   17:40  110.2     8   10.1   208     25.0   940.9    0.00     147    110.9
 195   17:50  110.1     8    6.7   210     17.6   940.9    0.00     123    110.8
 195   18:00  109.5     8    9.8   220     19.9   940.9    0.00     101    110.6
 195   18:10  108.8     8    9.3   226     19.7   940.9    0.00      77    110.5
 195   18:20  108.1     8    9.6   234     20.2   940.9    0.00      52    110.3
 195   18:30  107.2     9    8.7   231     24.3   941.0    0.00      27    110.2
 195   18:40  106.6     9    7.2   226     13.7   941.1    0.00      13    110.0
 195   18:50  106.3     9    7.6   220     19.1   941.2    0.00       8    109.8
 195   19:00  105.9     9    6.1   230     14.4   941.2    0.00       3    109.6
 195   19:10  104.8    10    5.8   233     11.4   941.3    0.00       3    109.4
 195   19:20  103.9    10    4.5   236      9.9   941.4    0.00       1    109.1
 195   19:30  103.4    10    3.4   234      6.1   941.4    0.00       0    108.9
 195   19:40  102.9    10    3.8   238      6.4   941.6    0.00       0    108.8

Return to Mesquite, Nevada graphs page.


Western Regional Climate Center,wrcc@dri.edu